Time;durP1;ratioP1;P1;durP2;ratioP2;P2;SDS_P1;SDS_P2;PMS_P1;PMS_P2;Temp;Humidity;BMP_temperature;BMP_pressure;BME280_temperature;BME280_humidity;BME280_pressure;Samples;Min_cycle;Max_cycle;Signal;HPM_P1;HPM_P2
2021/06/05 00:01:22;;;;;;;6.80;6.30;;;;;;;15.88;96.93;98346.72;5095362;28;20202;-73
2021/06/05 00:03:51;;;;;;;6.57;6.07;;;;;;;15.75;97.65;98344.72;5100763;28;20681;-72
2021/06/05 00:06:21;;;;;;;6.57;6.00;;;;;;;15.65;98.37;98331.66;5097044;28;20225;-73
2021/06/05 00:08:49;;;;;;;6.87;6.27;;;;;;;15.63;98.68;98336.34;5099081;28;20209;-71
2021/06/05 00:11:18;;;;;;;7.00;6.50;;;;;;;15.66;98.89;98337.81;5099935;28;20220;-72
2021/06/05 00:13:48;;;;;;;6.83;6.33;;;;;;;15.59;99.07;98332.41;5098682;27;20221;-72
2021/06/05 00:16:18;;;;;;;6.30;5.70;;;;;;;15.51;99.76;98333.34;5098874;28;20216;-71
2021/06/05 00:18:47;;;;;;;6.83;6.33;;;;;;;15.48;99.62;98333.72;5100533;28;20259;-74
2021/06/05 00:21:15;;;;;;;6.70;6.10;;;;;;;15.52;99.35;98331.47;5114711;28;20269;-74
2021/06/05 00:23:44;;;;;;;6.47;5.97;;;;;;;15.52;99.65;98343.00;5116776;28;20198;-73
2021/06/05 00:26:12;;;;;;;6.73;6.23;;;;;;;15.34;100.00;98346.91;5104358;28;20666;-72
2021/06/05 00:28:39;;;;;;;6.43;6.03;;;;;;;15.39;100.00;98341.00;5101020;28;20209;-71
2021/06/05 00:31:07;;;;;;;9.93;6.73;;;;;;;15.44;100.00;98338.59;5095344;28;20206;-71
2021/06/05 00:33:35;;;;;;;6.53;6.03;;;;;;;15.39;100.00;98337.50;5102221;28;20221;-71
2021/06/05 00:36:04;;;;;;;6.70;6.20;;;;;;;15.33;100.00;98334.56;5100903;28;20406;-72
2021/06/05 00:38:31;;;;;;;6.80;6.37;;;;;;;15.18;100.00;98333.75;5100136;28;20201;-73
2021/06/05 00:41:00;;;;;;;6.93;6.37;;;;;;;15.14;100.00;98337.81;5097774;28;20213;-71
2021/06/05 00:43:30;;;;;;;7.73;7.03;;;;;;;15.03;100.00;98337.25;5094995;28;20199;-72
2021/06/05 00:45:58;;;;;;;6.90;6.40;;;;;;;15.03;100.00;98339.94;5100515;28;20577;-73
2021/06/05 00:48:26;;;;;;;7.40;6.80;;;;;;;15.03;100.00;98339.94;5099926;28;20459;-73
2021/06/05 00:50:54;;;;;;;7.30;6.70;;;;;;;15.00;100.00;98350.13;5102136;28;20224;-71
2021/06/05 00:53:24;;;;;;;8.07;7.27;;;;;;;14.99;100.00;98348.47;5096885;28;20226;-72
2021/06/05 00:55:54;;;;;;;6.90;6.30;;;;;;;14.89;100.00;98349.59;5095936;28;20226;-71
2021/06/05 00:58:36;;;;;;;7.23;6.73;;;;;;;14.68;100.00;98336.94;5095711;28;20570;-74
2021/06/05 01:01:13;;;;;;;7.20;6.60;;;;;;;14.72;100.00;98340.94;5097957;28;20202;-75
2021/06/05 01:03:41;;;;;;;6.83;6.33;;;;;;;14.66;100.00;98322.13;5096267;28;20199;-74
2021/06/05 01:06:14;;;;;;;6.73;6.03;;;;;;;14.64;100.00;98329.47;5101206;28;20234;-75
2021/06/05 01:08:47;;;;;;;7.67;6.97;;;;;;;14.60;100.00;98334.34;5097911;28;20213;-72
2021/06/05 01:11:18;;;;;;;7.70;6.73;;;;;;;14.60;100.00;98323.69;5101261;28;20198;-73
2021/06/05 01:13:51;;;;;;;7.07;6.67;;;;;;;14.54;100.00;98332.38;5097399;28;20218;-72
2021/06/05 01:16:21;;;;;;;8.23;7.63;;;;;;;14.57;100.00;98332.03;5095072;28;20209;-74
2021/06/05 01:18:51;;;;;;;8.87;7.97;;;;;;;14.51;100.00;98324.75;5099566;28;20263;-72
2021/06/05 01:21:41;;;;;;;7.80;7.10;;;;;;;14.38;100.00;98328.03;5094918;28;20654;-73
2021/06/05 01:24:20;;;;;;;7.97;7.10;;;;;;;14.54;100.00;98319.06;5100718;28;20308;-72
2021/06/05 01:26:52;;;;;;;7.23;6.73;;;;;;;14.56;100.00;98328.53;5097094;28;20204;-72
2021/06/05 01:29:22;;;;;;;7.60;7.00;;;;;;;14.47;100.00;98309.13;5100270;28;20208;-73
2021/06/05 01:31:52;;;;;;;8.23;7.63;;;;;;;14.30;100.00;98321.78;5096669;28;20197;-73
2021/06/05 01:34:21;;;;;;;8.03;7.50;;;;;;;14.42;100.00;98327.50;5098020;28;20328;-72
2021/06/05 01:36:52;;;;;;;8.67;7.93;;;;;;;14.30;100.00;98331.63;5099377;28;20202;-73
2021/06/05 01:39:23;;;;;;;8.97;7.73;;;;;;;14.35;100.00;98333.72;5100411;28;20205;-74
2021/06/05 01:41:53;;;;;;;8.40;7.70;;;;;;;14.31;100.00;98333.28;5095981;28;20214;-71
2021/06/05 01:44:21;;;;;;;7.73;7.13;;;;;;;14.25;100.00;98331.34;5097111;28;20225;-71
2021/06/05 01:46:50;;;;;;;8.50;7.70;;;;;;;14.35;100.00;98326.56;5101015;28;20201;-73
2021/06/05 01:49:18;;;;;;;8.47;7.70;;;;;;;14.17;100.00;98337.56;5097024;28;20209;-73
2021/06/05 01:51:50;;;;;;;8.53;7.67;;;;;;;14.24;100.00;98340.34;5099765;28;20213;-72
2021/06/05 01:54:20;;;;;;;8.63;8.13;;;;;;;14.10;100.00;98339.28;5097583;28;20225;-71
2021/06/05 01:56:53;;;;;;;9.50;8.63;;;;;;;14.24;100.00;98329.69;5091315;28;20640;-70
2021/06/05 01:59:21;;;;;;;8.70;8.10;;;;;;;14.22;100.00;98329.84;5096592;28;20244;-71
2021/06/05 02:01:49;;;;;;;7.97;7.37;;;;;;;14.14;100.00;98328.06;5098039;28;20209;-73
2021/06/05 02:04:17;;;;;;;8.70;8.00;;;;;;;14.15;100.00;98329.72;5094489;28;20380;-73
2021/06/05 02:06:48;;;;;;;9.20;8.40;;;;;;;14.19;100.00;98330.19;5101283;28;20202;-73
2021/06/05 02:09:27;;;;;;;9.53;8.73;;;;;;;14.10;100.00;98334.75;5097723;28;20218;-74
2021/06/05 02:12:01;;;;;;;10.33;9.33;;;;;;;14.12;100.00;98326.59;5097150;28;20371;-76
2021/06/05 02:14:32;;;;;;;9.20;8.50;;;;;;;14.14;100.00;98320.06;5090348;28;20840;-72
2021/06/05 02:17:00;;;;;;;9.33;8.73;;;;;;;14.07;100.00;98326.31;5097611;28;20205;-71
2021/06/05 02:19:31;;;;;;;9.63;8.73;;;;;;;14.15;100.00;98328.91;5096941;28;20244;-69
2021/06/05 02:22:01;;;;;;;9.30;8.60;;;;;;;14.36;100.00;98312.22;5100679;28;20201;-74
2021/06/05 02:24:30;;;;;;;9.27;8.57;;;;;;;14.27;100.00;98310.66;5103266;28;20238;-73
2021/06/05 02:27:00;;;;;;;8.57;7.93;;;;;;;14.18;100.00;98316.03;5101007;27;20201;-73
2021/06/05 02:29:30;;;;;;;9.33;8.63;;;;;;;14.16;100.00;98317.25;5100928;28;20202;-70
2021/06/05 02:31:58;;;;;;;10.23;8.27;;;;;;;14.21;100.00;98314.84;5099393;28;20201;-71
2021/06/05 02:34:28;;;;;;;8.60;7.93;;;;;;;14.36;100.00;98304.22;5100296;28;20232;-75
2021/06/05 02:36:58;;;;;;;9.27;8.63;;;;;;;14.25;100.00;98308.16;5100267;28;20202;-72
2021/06/05 02:39:26;;;;;;;8.90;8.17;;;;;;;14.15;100.00;98305.72;5099046;28;20202;-72
2021/06/05 02:41:54;;;;;;;9.23;8.53;;;;;;;14.17;100.00;98311.72;5100472;28;20620;-71
2021/06/05 02:44:25;;;;;;;9.10;8.30;;;;;;;14.19;100.00;98315.03;5102291;27;20243;-74
2021/06/05 02:46:54;;;;;;;8.47;7.77;;;;;;;14.11;100.00;98316.94;5091542;27;20225;-72
2021/06/05 02:49:26;;;;;;;8.53;7.80;;;;;;;14.23;100.00;98307.50;5100043;28;20212;-72
2021/06/05 02:51:56;;;;;;;8.20;7.47;;;;;;;14.28;100.00;98310.47;5099899;28;20229;-71
2021/06/05 02:54:24;;;;;;;9.37;8.47;;;;;;;14.16;100.00;98303.91;5101542;28;20240;-72
2021/06/05 02:56:52;;;;;;;8.60;7.87;;;;;;;14.10;100.00;98299.31;5098900;28;20197;-71
2021/06/05 02:59:20;;;;;;;7.53;7.03;;;;;;;14.14;100.00;98309.41;5101371;28;20700;-72
2021/06/05 03:01:50;;;;;;;7.90;7.30;;;;;;;14.36;100.00;98300.72;5099911;28;20206;-73
2021/06/05 03:04:17;;;;;;;7.80;7.30;;;;;;;14.41;100.00;98301.03;5099767;28;20221;-71
2021/06/05 03:06:45;;;;;;;7.93;7.13;;;;;;;14.28;100.00;98304.31;5099745;28;20208;-71
2021/06/05 03:09:16;;;;;;;7.20;6.80;;;;;;;14.44;100.00;98303.34;5099346;28;20726;-72
2021/06/05 03:11:44;;;;;;;8.43;7.73;;;;;;;14.36;100.00;98300.72;5101565;28;20202;-73
2021/06/05 03:14:12;;;;;;;8.93;8.07;;;;;;;14.40;100.00;98296.72;5102659;28;20354;-72
2021/06/05 03:16:40;;;;;;;8.77;7.87;;;;;;;14.36;100.00;98298.91;5100586;28;20209;-72
2021/06/05 03:19:12;;;;;;;8.27;7.67;;;;;;;14.29;100.00;98292.66;5102270;28;20212;-74
2021/06/05 03:21:49;;;;;;;9.03;8.43;;;;;;;14.30;100.00;98294.31;5103226;28;20205;-72
2021/06/05 03:24:17;;;;;;;8.47;7.77;;;;;;;14.35;100.00;98297.25;5103121;27;20270;-73
2021/06/05 03:26:44;;;;;;;7.90;7.30;;;;;;;14.37;100.00;98303.22;5104283;28;20483;-72
2021/06/05 03:29:12;;;;;;;9.00;7.80;;;;;;;14.30;100.00;98312.97;5102639;28;20221;-73
2021/06/05 03:31:39;;;;;;;8.70;7.90;;;;;;;14.48;100.00;98316.09;5104365;28;20202;-72
2021/06/05 03:34:07;;;;;;;8.33;7.70;;;;;;;14.46;100.00;98323.47;5101786;28;20283;-72
2021/06/05 03:36:36;;;;;;;8.50;7.80;;;;;;;14.35;100.00;98331.91;5100867;28;20201;-72
2021/06/05 03:39:05;;;;;;;8.30;7.70;;;;;;;14.40;100.00;98323.38;5100050;28;20536;-71
2021/06/05 03:41:33;;;;;;;8.77;8.00;;;;;;;14.54;100.00;98308.38;5096070;28;20250;-75
2021/06/05 03:44:00;;;;;;;9.33;8.57;;;;;;;14.51;100.00;98314.94;5100842;28;20206;-73
2021/06/05 03:46:28;;;;;;;9.60;8.90;;;;;;;14.60;100.00;98315.69;5094283;28;20197;-72
2021/06/05 03:48:56;;;;;;;8.63;7.93;;;;;;;14.69;100.00;98308.41;5096872;28;20247;-69
2021/06/05 03:51:24;;;;;;;9.67;8.67;;;;;;;14.84;100.00;98313.78;5096407;28;20201;-71
2021/06/05 03:53:52;;;;;;;9.67;8.83;;;;;;;14.87;100.00;98311.59;5095802;28;20225;-71
2021/06/05 03:56:20;;;;;;;8.00;7.40;;;;;;;14.84;100.00;98309.28;5094804;28;20756;-67
2021/06/05 03:58:48;;;;;;;8.37;7.77;;;;;;;14.91;100.00;98309.38;5095168;28;20198;-67
2021/06/05 04:01:22;;;;;;;9.90;9.10;;;;;;;15.03;100.00;98320.41;5093497;28;20197;-68
2021/06/05 04:03:50;;;;;;;9.17;8.47;;;;;;;15.24;100.00;98311.66;5096828;28;20198;-67
2021/06/05 04:06:19;;;;;;;9.50;8.70;;;;;;;15.37;100.00;98312.84;5094483;28;20205;-69
2021/06/05 04:08:46;;;;;;;8.93;8.27;;;;;;;15.42;100.00;98315.78;5091951;28;20239;-69
2021/06/05 04:11:15;;;;;;;9.20;8.47;;;;;;;15.65;100.00;98306.75;5094321;28;20209;-67
2021/06/05 04:13:45;;;;;;;11.20;10.20;;;;;;;15.50;100.00;98304.97;5098257;28;20225;-68
2021/06/05 04:16:13;;;;;;;8.97;8.37;;;;;;;15.48;100.00;98299.00;5100481;28;20217;-66
2021/06/05 04:18:42;;;;;;;8.80;8.20;;;;;;;15.58;100.00;98299.50;5101764;28;20202;-68
2021/06/05 04:21:15;;;;;;;8.93;8.27;;;;;;;15.63;100.00;98297.09;5098581;28;20666;-68
2021/06/05 04:23:43;;;;;;;9.03;8.43;;;;;;;15.72;100.00;98294.28;5096758;27;20205;-67
2021/06/05 04:26:10;;;;;;;9.73;9.03;;;;;;;15.85;100.00;98298.94;5091333;28;20640;-68
2021/06/05 04:28:40;;;;;;;10.40;9.13;;;;;;;15.85;100.00;98304.31;5094118;27;20201;-68
2021/06/05 04:31:09;;;;;;;9.97;8.90;;;;;;;16.03;100.00;98306.56;5094143;27;20286;-69
2021/06/05 04:33:37;;;;;;;9.10;8.40;;;;;;;16.01;100.00;98320.13;5094007;28;20224;-68
2021/06/05 04:36:08;;;;;;;8.67;8.07;;;;;;;15.92;100.00;98321.28;5095465;28;20713;-67
2021/06/05 04:38:35;;;;;;;9.83;8.13;;;;;;;15.96;100.00;98324.38;5101719;28;20729;-67
2021/06/05 04:41:04;;;;;;;9.43;8.53;;;;;;;16.23;98.83;98325.44;5092469;28;20198;-68
2021/06/05 04:43:32;;;;;;;9.90;8.93;;;;;;;15.95;100.00;98322.72;5097390;28;20583;-68
2021/06/05 04:46:01;;;;;;;10.40;9.60;;;;;;;15.88;100.00;98315.47;5101294;27;20585;-68
2021/06/05 04:48:30;;;;;;;10.17;9.30;;;;;;;16.08;100.00;98327.38;5094571;28;20213;-67
2021/06/05 04:50:58;;;;;;;9.20;8.40;;;;;;;16.03;100.00;98330.63;5095031;28;20206;-68
2021/06/05 04:53:25;;;;;;;8.63;8.03;;;;;;;16.05;100.00;98325.91;5098259;28;20222;-68
2021/06/05 04:55:53;;;;;;;8.53;7.93;;;;;;;16.16;100.00;98328.09;5097086;28;20236;-68
2021/06/05 04:58:21;;;;;;;9.63;8.87;;;;;;;16.20;100.00;98333.84;5099084;28;20197;-68
2021/06/05 05:00:50;;;;;;;10.63;9.87;;;;;;;16.17;100.00;98329.75;5097205;28;20206;-66
2021/06/05 05:03:21;;;;;;;10.37;9.57;;;;;;;16.18;100.00;98325.19;5094730;28;20425;-68
2021/06/05 05:05:50;;;;;;;10.90;10.00;;;;;;;16.25;100.00;98323.41;5101046;28;20225;-68
2021/06/05 05:08:19;;;;;;;10.00;9.30;;;;;;;16.34;100.00;98324.94;5098530;28;20208;-67
2021/06/05 05:10:49;;;;;;;10.60;9.60;;;;;;;16.30;100.00;98333.53;5098786;28;20670;-68
2021/06/05 05:13:19;;;;;;;10.87;9.83;;;;;;;16.42;100.00;98331.16;5101292;28;20205;-68
2021/06/05 05:15:47;;;;;;;11.10;10.30;;;;;;;16.41;100.00;98329.53;5098665;28;20229;-68
2021/06/05 05:18:15;;;;;;;11.17;10.33;;;;;;;16.55;100.00;98328.59;5099702;28;20241;-68
2021/06/05 05:20:45;;;;;;;11.60;10.80;;;;;;;16.71;100.00;98332.81;5092538;28;20206;-67
2021/06/05 05:23:13;;;;;;;11.43;10.43;;;;;;;16.84;100.00;98336.59;5095298;28;20201;-66
2021/06/05 05:25:42;;;;;;;11.03;10.13;;;;;;;16.87;100.00;98325.53;5099622;28;20221;-68
2021/06/05 05:28:11;;;;;;;11.30;10.47;;;;;;;17.04;100.00;98331.41;5099251;28;20248;-73
2021/06/05 05:30:42;;;;;;;11.10;10.30;;;;;;;17.28;100.00;98334.63;5097549;28;20613;-71
2021/06/05 05:33:10;;;;;;;11.97;10.87;;;;;;;17.26;100.00;98340.19;5098281;28;20198;-71
2021/06/05 05:35:37;;;;;;;10.67;9.67;;;;;;;17.47;100.00;98341.91;5100520;28;20237;-72
2021/06/05 05:38:08;;;;;;;9.63;8.87;;;;;;;17.63;98.95;98348.78;5094805;28;20214;-72
2021/06/05 05:40:37;;;;;;;11.63;10.73;;;;;;;17.99;97.20;98343.28;5085145;28;20202;-71
2021/06/05 05:43:05;;;;;;;11.57;10.50;;;;;;;17.93;96.57;98343.06;5092916;28;20220;-74
2021/06/05 05:45:32;;;;;;;11.37;10.40;;;;;;;17.95;96.78;98345.56;5093546;28;20221;-72
2021/06/05 05:48:01;;;;;;;10.97;10.20;;;;;;;18.20;95.21;98337.78;5099854;28;20205;-70
2021/06/05 05:50:31;;;;;;;10.17;9.47;;;;;;;18.28;94.38;98343.97;5096899;28;20206;-71
2021/06/05 05:52:59;;;;;;;10.50;9.70;;;;;;;18.23;94.22;98337.38;5098844;28;20197;-71
2021/06/05 05:55:29;;;;;;;10.50;9.77;;;;;;;18.27;94.56;98345.00;5095656;28;20887;-72
2021/06/05 05:58:03;;;;;;;10.30;9.60;;;;;;;18.31;94.49;98341.72;5104708;28;20212;-72
2021/06/05 06:00:32;;;;;;;11.80;10.77;;;;;;;18.37;94.84;98340.88;5098231;28;20202;-68
2021/06/05 06:02:59;;;;;;;9.77;9.07;;;;;;;18.44;93.33;98338.22;5105451;28;20212;-72
2021/06/05 06:05:27;;;;;;;10.30;9.40;;;;;;;18.51;93.19;98344.41;5096392;28;20248;-70
2021/06/05 06:07:55;;;;;;;10.37;9.60;;;;;;;18.68;91.38;98337.78;5103541;28;20212;-69
2021/06/05 06:10:23;;;;;;;9.60;9.00;;;;;;;18.70;90.92;98341.91;5099500;27;20213;-68
2021/06/05 06:12:52;;;;;;;9.87;9.10;;;;;;;18.80;90.82;98338.78;5093998;28;20194;-69
2021/06/05 06:15:22;;;;;;;9.77;8.87;;;;;;;18.75;89.94;98350.19;5103195;27;20244;-69
2021/06/05 06:17:50;;;;;;;8.93;8.20;;;;;;;18.89;89.27;98344.78;5098724;28;20204;-69
2021/06/05 06:20:21;;;;;;;9.93;9.07;;;;;;;19.29;86.91;98350.06;5096767;28;20467;-67
2021/06/05 06:22:49;;;;;;;9.60;8.80;;;;;;;19.31;87.33;98347.16;5100120;28;20687;-69
2021/06/05 06:25:20;;;;;;;9.23;8.47;;;;;;;19.42;86.22;98343.84;5103220;28;20233;-68
2021/06/05 06:27:47;;;;;;;10.47;9.67;;;;;;;19.17;88.15;98341.84;5098566;28;20206;-68
2021/06/05 06:30:18;;;;;;;10.20;9.27;;;;;;;19.30;87.37;98345.50;5104089;28;20209;-68
2021/06/05 06:32:50;;;;;;;11.23;10.33;;;;;;;19.17;88.42;98347.22;5100699;28;20212;-70
2021/06/05 06:35:18;;;;;;;11.23;10.23;;;;;;;19.19;88.50;98361.25;5098956;28;20225;-68
2021/06/05 06:37:46;;;;;;;11.97;11.00;;;;;;;19.05;89.80;98365.03;5102684;28;20689;-68
2021/06/05 06:40:15;;;;;;;10.63;9.83;;;;;;;19.13;89.64;98356.72;5098593;27;20209;-67
2021/06/05 06:42:42;;;;;;;10.80;9.73;;;;;;;19.41;87.75;98354.78;5101774;27;20198;-70
2021/06/05 06:45:11;;;;;;;9.77;9.07;;;;;;;19.41;88.05;98357.47;5095020;28;20232;-68
2021/06/05 06:47:43;;;;;;;9.43;8.83;;;;;;;19.45;87.70;98354.16;5097590;27;20194;-68
2021/06/05 06:50:12;;;;;;;10.47;9.57;;;;;;;19.45;87.86;98356.84;5098281;28;20692;-68
2021/06/05 06:52:40;;;;;;;11.53;10.53;;;;;;;19.49;87.14;98354.53;5100592;27;20589;-68
2021/06/05 06:55:09;;;;;;;10.20;9.40;;;;;;;19.47;87.88;98362.00;5101957;28;20255;-69
2021/06/05 06:57:37;;;;;;;10.67;9.80;;;;;;;19.33;88.71;98364.72;5100515;28;20578;-67
2021/06/05 07:00:07;;;;;;;9.37;8.47;;;;;;;19.47;88.01;98367.38;5101066;28;20202;-68
2021/06/05 07:02:35;;;;;;;10.57;9.50;;;;;;;19.71;86.28;98365.84;5099944;28;20205;-72
2021/06/05 07:05:04;;;;;;;9.50;8.80;;;;;;;19.65;87.70;98358.59;5096690;28;20218;-73
2021/06/05 07:07:32;;;;;;;9.30;8.63;;;;;;;19.86;86.04;98365.53;5100553;28;20202;-73
2021/06/05 07:09:59;;;;;;;8.30;7.80;;;;;;;19.78;86.80;98363.94;5099124;28;20696;-72
2021/06/05 07:12:27;;;;;;;8.67;8.07;;;;;;;20.02;85.45;98356.16;5096199;28;20206;-74
2021/06/05 07:14:55;;;;;;;9.50;8.90;;;;;;;20.16;84.11;98364.97;5100225;27;20303;-72
2021/06/05 07:17:22;;;;;;;8.70;8.00;;;;;;;20.44;82.40;98360.22;5099459;28;20507;-71
2021/06/05 07:19:49;;;;;;;8.87;6.30;;;;;;;20.60;81.71;98366.91;5098350;28;20205;-74
2021/06/05 07:22:18;;;;;;;7.30;6.70;;;;;;;20.53;80.70;98358.91;5100197;28;20232;-73
2021/06/05 07:24:46;;;;;;;8.00;6.93;;;;;;;20.58;79.17;98359.06;5096371;28;20272;-73
2021/06/05 07:27:13;;;;;;;6.70;6.20;;;;;;;20.52;79.18;98368.84;5098863;27;21105;-75
2021/06/05 07:29:41;;;;;;;8.63;6.90;;;;;;;20.65;78.44;98369.81;5096634;28;20210;-71
2021/06/05 07:32:09;;;;;;;7.10;6.57;;;;;;;20.93;77.00;98365.81;5099626;28;20205;-70
2021/06/05 07:34:36;;;;;;;6.77;6.00;;;;;;;21.13;75.85;98360.22;5099543;28;20229;-68
2021/06/05 07:37:06;;;;;;;5.87;5.47;;;;;;;21.13;73.62;98362.13;5097887;28;20202;-69
2021/06/05 07:39:35;;;;;;;5.60;5.27;;;;;;;20.96;73.89;98378.84;5099463;28;20208;-68
2021/06/05 07:42:05;;;;;;;5.13;4.83;;;;;;;20.97;73.89;98380.50;5096157;28;20207;-68
2021/06/05 07:44:33;;;;;;;4.90;4.50;;;;;;;20.91;73.88;98367.91;5098935;27;20230;-66
2021/06/05 07:47:02;;;;;;;6.07;5.30;;;;;;;20.96;72.48;98373.47;5095794;28;20229;-68
2021/06/05 07:49:32;;;;;;;4.60;4.23;;;;;;;20.79;72.24;98373.19;5100293;28;20263;-68
2021/06/05 07:52:00;;;;;;;4.57;4.27;;;;;;;20.86;72.17;98370.47;5098788;28;20209;-68
2021/06/05 07:54:28;;;;;;;3.93;3.70;;;;;;;21.03;70.62;98368.00;5098175;28;20230;-68
2021/06/05 07:56:57;;;;;;;4.00;3.80;;;;;;;21.13;69.74;98370.19;5090491;28;20210;-68
2021/06/05 07:59:26;;;;;;;4.13;3.73;;;;;;;21.02;68.20;98364.47;5096963;28;20205;-68
2021/06/05 08:01:53;;;;;;;3.80;3.50;;;;;;;21.05;68.93;98357.84;5095014;28;20218;-67
2021/06/05 08:04:21;;;;;;;3.30;3.10;;;;;;;21.06;69.00;98367.56;5097568;28;20374;-68
2021/06/05 08:06:49;;;;;;;3.77;3.47;;;;;;;21.20;65.41;98349.38;5096354;28;21022;-69
2021/06/05 08:09:17;;;;;;;3.53;3.23;;;;;;;21.11;65.71;98349.69;5101348;28;20244;-68
2021/06/05 08:11:44;;;;;;;3.47;3.27;;;;;;;21.18;65.85;98354.19;5098694;28;20225;-66
2021/06/05 08:14:13;;;;;;;3.07;2.87;;;;;;;21.14;65.81;98350.28;5097693;28;20712;-66
2021/06/05 08:16:41;;;;;;;3.90;3.40;;;;;;;21.16;65.80;98351.69;5097989;28;20202;-69
2021/06/05 08:19:11;;;;;;;5.07;3.10;;;;;;;21.18;66.49;98344.22;5099447;28;20739;-69
2021/06/05 08:21:40;;;;;;;4.63;3.97;;;;;;;21.35;66.82;98347.13;5100518;28;20205;-68
2021/06/05 08:24:08;;;;;;;3.60;3.40;;;;;;;21.63;65.73;98345.75;5091041;28;20228;-69
2021/06/05 08:26:36;;;;;;;3.47;2.77;;;;;;;21.89;63.52;98338.41;5090200;28;20403;-68
2021/06/05 08:29:04;;;;;;;4.90;3.20;;;;;;;22.02;63.57;98347.34;5088343;28;20209;-68
2021/06/05 08:31:34;;;;;;;4.87;3.07;;;;;;;21.97;62.22;98340.75;5089500;28;20202;-68
2021/06/05 08:34:02;;;;;;;3.60;3.13;;;;;;;21.97;62.43;98340.75;5093878;28;20262;-69
2021/06/05 08:36:30;;;;;;;6.13;3.30;;;;;;;22.03;61.83;98338.19;5096896;28;20257;-68
2021/06/05 08:38:59;;;;;;;3.10;2.80;;;;;;;22.24;61.78;98339.53;5095385;27;20206;-68
2021/06/05 08:41:29;;;;;;;3.13;2.93;;;;;;;22.40;59.99;98338.88;5097746;28;20697;-67
2021/06/05 08:44:02;;;;;;;4.43;3.23;;;;;;;22.45;60.91;98334.66;5098264;28;20206;-67
2021/06/05 08:46:34;;;;;;;7.13;3.93;;;;;;;22.50;61.29;98332.91;5092241;28;20418;-69
2021/06/05 08:49:07;;;;;;;3.20;3.00;;;;;;;22.65;60.52;98339.75;5094668;28;20202;-69
2021/06/05 08:51:49;;;;;;;3.23;2.97;;;;;;;22.63;59.26;98342.66;5095780;28;20607;-68
2021/06/05 08:54:25;;;;;;;3.70;3.17;;;;;;;22.52;60.37;98333.50;5099688;28;20225;-68
2021/06/05 08:56:52;;;;;;;3.60;3.30;;;;;;;22.80;57.92;98337.38;5094528;27;20202;-67
2021/06/05 08:59:24;;;;;;;3.10;2.90;;;;;;;22.79;58.26;98332.22;5097059;28;20225;-69
2021/06/05 09:01:53;;;;;;;3.00;2.80;;;;;;;22.90;59.17;98336.78;5092197;28;20593;-67
2021/06/05 09:04:24;;;;;;;3.80;2.90;;;;;;;22.86;56.95;98332.91;5097124;28;20241;-68
2021/06/05 09:06:53;;;;;;;3.20;2.83;;;;;;;22.76;56.76;98332.69;5093217;28;20198;-69
2021/06/05 09:09:30;;;;;;;7.37;3.23;;;;;;;22.73;57.41;98333.16;5100316;28;20656;-68
2021/06/05 09:11:58;;;;;;;3.57;3.27;;;;;;;22.79;57.73;98335.72;5097586;28;20576;-68
2021/06/05 09:14:26;;;;;;;3.00;2.80;;;;;;;22.86;55.82;98343.72;5094801;28;20218;-68
2021/06/05 09:16:54;;;;;;;2.87;2.70;;;;;;;22.39;56.83;98341.78;5097965;28;20210;-67
2021/06/05 09:19:29;;;;;;;3.40;2.80;;;;;;;22.61;57.01;98342.06;5097444;28;20468;-67
2021/06/05 09:22:13;;;;;;;2.70;2.60;;;;;;;22.76;56.71;98338.09;5098156;28;20601;-69
2021/06/05 09:24:42;;;;;;;3.27;2.97;;;;;;;23.01;55.51;98340.56;5093350;28;20217;-69
2021/06/05 09:27:13;;;;;;;4.47;2.97;;;;;;;22.94;55.83;98337.97;5088673;28;20210;-68
2021/06/05 09:29:54;;;;;;;3.27;2.97;;;;;;;22.89;56.86;98343.25;5093523;28;20208;-68
2021/06/05 09:32:24;;;;;;;3.53;3.13;;;;;;;22.84;57.21;98345.84;5094641;28;20206;-65
2021/06/05 09:34:55;;;;;;;3.37;3.07;;;;;;;22.85;57.82;98342.09;5088156;28;20621;-69
2021/06/05 09:37:30;;;;;;;2.93;2.73;;;;;;;22.95;56.58;98338.81;5094889;28;20221;-69
2021/06/05 09:40:05;;;;;;;4.07;2.93;;;;;;;23.14;56.12;98331.38;5095491;28;20210;-70
2021/06/05 09:42:41;;;;;;;3.30;3.00;;;;;;;23.53;54.94;98328.94;5101442;28;20201;-70
2021/06/05 09:45:23;;;;;;;4.30;3.40;;;;;;;23.57;54.85;98331.97;5098927;28;20221;-70
2021/06/05 09:47:51;;;;;;;3.37;2.90;;;;;;;23.58;54.42;98332.81;5093449;28;20198;-70
2021/06/05 09:50:24;;;;;;;3.17;2.93;;;;;;;23.54;53.36;98332.47;5097475;28;20202;-70
2021/06/05 09:52:52;;;;;;;2.83;2.70;;;;;;;23.60;53.02;98328.78;5098012;28;20208;-70
2021/06/05 09:55:37;;;;;;;2.63;2.43;;;;;;;23.40;54.00;98329.19;5096884;28;20228;-68
2021/06/05 09:58:09;;;;;;;3.57;3.17;;;;;;;23.73;53.49;98327.69;5098182;28;20208;-70
2021/06/05 10:00:40;;;;;;;3.20;2.90;;;;;;;23.82;52.70;98317.28;5091598;28;20249;-67
2021/06/05 10:03:29;;;;;;;3.23;2.97;;;;;;;23.80;52.83;98316.72;5100009;28;20205;-68
2021/06/05 10:05:58;;;;;;;2.93;2.73;;;;;;;24.24;51.81;98319.69;5093803;28;20327;-68
2021/06/05 10:08:36;;;;;;;3.23;2.97;;;;;;;24.32;51.70;98313.03;5098814;28;20203;-67
2021/06/05 10:11:09;;;;;;;2.80;2.50;;;;;;;24.56;51.30;98316.38;5094943;28;20210;-69
2021/06/05 10:13:41;;;;;;;3.70;2.60;;;;;;;24.81;49.78;98312.47;5091961;28;20443;-68
2021/06/05 10:16:11;;;;;;;4.53;2.80;;;;;;;25.29;49.38;98311.97;5095060;28;20230;-67
2021/06/05 10:18:48;;;;;;;2.47;2.33;;;;;;;25.13;48.24;98310.97;5097028;28;20209;-68
2021/06/05 10:21:20;;;;;;;4.40;2.40;;;;;;;24.67;46.59;98313.81;5097206;28;20243;-68
2021/06/05 10:23:51;;;;;;;2.83;2.60;;;;;;;24.30;47.98;98312.47;5098419;28;20202;-66
2021/06/05 10:26:27;;;;;;;2.93;2.40;;;;;;;23.96;50.08;98310.50;5098006;28;20202;-69
2021/06/05 10:28:58;;;;;;;3.80;2.50;;;;;;;24.00;49.83;98316.25;5095742;28;20220;-69
2021/06/05 10:31:26;;;;;;;2.20;2.10;;;;;;;23.47;51.90;98310.94;5096806;28;20204;-68
2021/06/05 10:33:56;;;;;;;2.60;2.40;;;;;;;23.16;53.17;98307.63;5097780;28;20589;-68
2021/06/05 10:36:28;;;;;;;2.67;2.57;;;;;;;23.17;53.91;98298.44;5090506;28;20230;-68
2021/06/05 10:38:59;;;;;;;3.10;2.90;;;;;;;22.96;54.60;98303.41;5092591;28;20207;-71
2021/06/05 10:41:29;;;;;;;4.00;3.60;;;;;;;22.97;54.63;98305.06;5092594;28;20202;-67
2021/06/05 10:43:57;;;;;;;3.03;2.77;;;;;;;22.73;55.56;98298.88;5101217;27;20209;-70
2021/06/05 10:46:36;;;;;;;2.67;2.50;;;;;;;22.89;55.57;98299.19;5096603;27;20281;-69
2021/06/05 10:49:08;;;;;;;4.63;3.00;;;;;;;22.76;56.09;98290.28;5099760;27;20237;-67
2021/06/05 10:51:41;;;;;;;2.80;2.60;;;;;;;22.77;54.53;98297.34;5100562;28;20198;-68
2021/06/05 10:54:14;;;;;;;3.90;2.93;;;;;;;22.78;55.03;98290.88;5101238;28;20634;-68
2021/06/05 10:56:43;;;;;;;3.33;2.30;;;;;;;22.66;55.91;98290.88;5097914;28;20221;-68
2021/06/05 10:59:42;;;;;;;3.30;3.00;;;;;;;22.81;55.32;98289.59;5094908;28;20209;-67
2021/06/05 11:02:11;;;;;;;2.27;2.17;;;;;;;22.60;56.06;98293.72;5098887;28;20211;-67
2021/06/05 11:04:44;;;;;;;3.70;2.57;;;;;;;22.30;57.99;98300.00;5096710;28;20507;-67
2021/06/05 11:07:31;;;;;;;3.10;2.70;;;;;;;22.25;58.92;98298.00;5095730;28;20198;-65
2021/06/05 11:10:01;;;;;;;4.13;2.20;;;;;;;22.18;58.65;98295.41;5101215;28;20213;-69
2021/06/05 11:12:59;;;;;;;2.30;2.20;;;;;;;22.30;58.14;98291.91;5101996;28;20213;-69
2021/06/05 11:15:58;;;;;;;2.87;2.67;;;;;;;22.36;58.42;98288.25;5096347;28;20293;-67
2021/06/05 11:18:32;;;;;;;2.40;2.30;;;;;;;22.43;59.71;98283.56;5094102;28;20202;-67
2021/06/05 11:21:24;;;;;;;3.47;2.73;;;;;;;22.25;60.97;98288.03;5097533;28;20674;-69
2021/06/05 11:24:14;;;;;;;2.57;2.37;;;;;;;21.89;66.23;98281.75;5102712;28;20205;-67
2021/06/05 11:26:45;;;;;;;2.80;2.60;;;;;;;21.50;66.26;98284.72;5101884;28;20202;-70
2021/06/05 11:29:50;;;;;;;4.67;2.60;;;;;;;20.72;72.09;98295.16;5099954;28;20210;-67
2021/06/05 11:32:49;;;;;;;2.70;2.50;;;;;;;20.23;74.02;98289.59;5097171;28;20224;-69
2021/06/05 11:35:34;;;;;;;3.33;3.03;;;;;;;19.99;78.33;98292.03;5099362;28;20780;-70
2021/06/05 11:38:03;;;;;;;3.13;2.87;;;;;;;19.89;78.92;98295.19;5096963;28;20810;-70
2021/06/05 11:40:55;;;;;;;3.37;3.17;;;;;;;20.14;81.45;98293.59;5097629;28;20205;-69
2021/06/05 11:43:39;;;;;;;2.90;2.80;;;;;;;20.22;79.47;98302.22;5098701;28;20202;-70